Time;durP1;ratioP1;P1;durP2;ratioP2;P2;SDS_P1;SDS_P2;PMS_P1;PMS_P2;Temp;Humidity;BMP_temperature;BMP_pressure;BME280_temperature;BME280_humidity;BME280_pressure;Samples;Min_cycle;Max_cycle;Signal;HPM_P1;HPM_P2
2024/01/19 00:00:37;;;;;;;13.30;12.00;;;;;;;1.20;73.49;98169.31;5126155;28;20043;-70
2024/01/19 00:03:04;;;;;;;10.88;9.38;;;;;;;1.19;73.19;98170.22;5126181;28;20052;-70
2024/01/19 00:05:32;;;;;;;10.30;9.30;;;;;;;-0.14;72.96;97961.16;5125562;28;20254;-70
2024/01/19 00:07:58;;;;;;;9.60;8.55;;;;;;;1.14;73.32;98182.56;5126733;28;20226;-70
2024/01/19 00:10:25;;;;;;;9.93;8.93;;;;;;;1.17;73.11;98185.06;5126166;28;20050;-71
2024/01/19 00:12:52;;;;;;;10.23;8.63;;;;;;;1.22;73.37;98193.59;5125817;28;20040;-71
2024/01/19 00:15:18;;;;;;;10.88;9.25;;;;;;;1.20;73.22;98195.41;5126105;28;20055;-70
2024/01/19 00:17:45;;;;;;;10.00;8.60;;;;;;;1.13;73.13;98201.75;5126109;28;20135;-70
2024/01/19 00:20:12;;;;;;;10.25;9.02;;;;;;;1.03;73.13;98205.59;5125715;28;20039;-70
2024/01/19 00:22:40;;;;;;;10.73;9.10;;;;;;;1.03;72.77;98224.72;5126030;28;20043;-70
2024/01/19 00:25:07;;;;;;;9.85;8.68;;;;;;;0.98;72.90;98223.16;5125760;28;20238;-72
2024/01/19 00:27:34;;;;;;;9.25;8.30;;;;;;;0.97;72.77;98231.91;5130353;28;20040;-71
2024/01/19 00:30:01;;;;;;;9.13;7.72;;;;;;;0.99;73.24;98227.47;5130242;28;20081;-71
2024/01/19 00:32:27;;;;;;;9.40;7.90;;;;;;;1.04;72.83;98241.22;5129970;28;20108;-71
2024/01/19 00:34:54;;;;;;;9.60;7.88;;;;;;;0.86;72.74;98198.34;5129632;28;20040;-71
2024/01/19 00:37:21;;;;;;;9.10;8.00;;;;;;;1.07;72.62;98251.53;5129881;28;20272;-70
2024/01/19 00:39:49;;;;;;;10.90;7.60;;;;;;;1.05;72.96;98250.75;5130048;28;20229;-71
2024/01/19 00:42:16;;;;;;;12.65;10.07;;;;;;;0.87;72.33;98254.84;5130067;28;20043;-72
2024/01/19 00:44:42;;;;;;;10.25;8.25;;;;;;;0.59;72.04;98210.56;5129739;28;20043;-71
2024/01/19 00:47:09;;;;;;;8.88;7.90;;;;;;;0.94;72.49;98256.34;5129969;28;20159;-71
2024/01/19 00:49:36;;;;;;;9.75;7.93;;;;;;;0.92;72.21;98255.53;5129686;28;20295;-71
2024/01/19 00:52:02;;;;;;;9.63;7.63;;;;;;;0.91;72.20;98267.72;5129594;28;20043;-72
2024/01/19 00:54:29;;;;;;;9.25;7.57;;;;;;;0.87;72.61;98266.13;5129412;28;20097;-71
2024/01/19 00:56:57;;;;;;;10.68;8.60;;;;;;;0.70;72.29;98247.56;5129536;28;20098;-71
2024/01/19 00:59:24;;;;;;;8.90;7.80;;;;;;;0.90;71.91;98281.66;5129424;28;20045;-71
2024/01/19 01:01:50;;;;;;;10.68;8.88;;;;;;;0.92;72.67;98292.91;5129270;28;20097;-72
2024/01/19 01:04:17;;;;;;;8.90;7.65;;;;;;;0.84;72.19;98287.09;5129395;28;20043;-71
2024/01/19 01:06:44;;;;;;;9.75;8.40;;;;;;;0.88;72.32;98298.28;5128928;28;20108;-71
2024/01/19 01:09:11;;;;;;;11.52;8.80;;;;;;;0.87;72.14;98301.78;5129302;28;20052;-72
2024/01/19 01:11:38;;;;;;;10.32;8.18;;;;;;;0.79;72.15;98306.41;5129497;28;20273;-71
2024/01/19 01:14:06;;;;;;;11.80;8.43;;;;;;;0.78;72.08;98302.94;5128896;28;20288;-71
2024/01/19 01:16:33;;;;;;;11.68;7.88;;;;;;;0.74;71.63;98310.91;5129391;28;20044;-71
2024/01/19 01:19:00;;;;;;;11.00;9.15;;;;;;;0.75;71.48;98316.09;5128802;28;20047;-71
2024/01/19 01:21:27;;;;;;;8.10;7.03;;;;;;;0.77;71.74;98313.44;5129244;28;20223;-70
2024/01/19 01:23:53;;;;;;;9.65;8.05;;;;;;;0.72;71.13;98317.94;5128916;28;20051;-71
2024/01/19 01:26:20;;;;;;;9.30;7.38;;;;;;;0.34;71.54;98260.03;5129196;28;20043;-71
2024/01/19 01:28:46;;;;;;;7.82;7.03;;;;;;;0.68;70.73;98335.44;5129192;28;20054;-70
2024/01/19 01:31:14;;;;;;;8.73;6.93;;;;;;;0.70;70.70;98340.59;5128533;28;20323;-71
2024/01/19 01:33:41;;;;;;;9.32;6.65;;;;;;;0.46;70.53;98310.94;5129639;28;20069;-71
2024/01/19 01:36:08;;;;;;;9.38;6.93;;;;;;;0.66;70.63;98350.28;5128696;28;20246;-71
2024/01/19 01:38:34;;;;;;;8.60;6.65;;;;;;;0.51;69.51;98355.97;5128997;28;20097;-71
2024/01/19 01:41:01;;;;;;;7.65;6.30;;;;;;;0.52;70.25;98353.31;5128873;28;20080;-71
2024/01/19 01:43:28;;;;;;;7.80;6.78;;;;;;;0.62;70.54;98359.09;5129112;28;20170;-70
2024/01/19 01:45:55;;;;;;;7.45;6.30;;;;;;;0.38;70.43;98344.22;5128258;28;20092;-71
2024/01/19 01:48:25;;;;;;;10.73;7.30;;;;;;;0.37;70.52;98342.50;5129297;28;20043;-73
2024/01/19 01:50:52;;;;;;;7.90;6.63;;;;;;;-0.19;70.52;98252.09;5128377;28;20040;-71
2024/01/19 01:53:20;;;;;;;8.57;6.57;;;;;;;0.54;69.99;98393.22;5128030;28;20380;-71
2024/01/19 01:55:47;;;;;;;11.13;6.25;;;;;;;0.53;69.93;98393.28;5128663;28;20084;-71
2024/01/19 01:58:14;;;;;;;7.30;5.75;;;;;;;0.51;69.44;98393.31;5128083;27;20043;-71
2024/01/19 02:00:43;;;;;;;8.75;4.93;;;;;;;0.51;69.59;98403.75;5128481;28;20100;-71
2024/01/19 02:03:10;;;;;;;7.18;5.28;;;;;;;0.57;69.95;98402.72;5128514;28;20043;-72
2024/01/19 02:05:38;;;;;;;7.03;5.32;;;;;;;0.12;69.54;98334.56;5126888;28;20062;-72
2024/01/19 02:08:05;;;;;;;8.10;5.43;;;;;;;0.50;69.27;98399.44;5128193;28;20052;-71
2024/01/19 02:10:32;;;;;;;5.95;5.32;;;;;;;0.45;68.22;98400.47;5128091;28;20039;-71
2024/01/19 02:12:59;;;;;;;5.97;4.93;;;;;;;0.48;67.89;98409.06;5127836;28;20039;-71
2024/01/19 02:15:27;;;;;;;6.28;5.03;;;;;;;0.48;67.63;98406.44;5127840;28;20092;-71
2024/01/19 02:17:54;;;;;;;5.90;4.82;;;;;;;0.53;68.31;98404.56;5127933;28;20040;-71
2024/01/19 02:20:21;;;;;;;5.80;4.35;;;;;;;0.54;68.59;98415.84;5128156;28;20085;-71
2024/01/19 02:22:50;;;;;;;6.38;4.80;;;;;;;-0.31;68.32;98277.66;5126732;28;20127;-71
2024/01/19 02:25:18;;;;;;;5.13;4.30;;;;;;;0.47;67.61;98406.50;5127897;27;20047;-71
2024/01/19 02:27:45;;;;;;;6.40;4.68;;;;;;;0.52;68.57;98395.03;5127729;28;20123;-71
2024/01/19 02:30:12;;;;;;;5.47;4.40;;;;;;;0.50;67.30;98406.41;5127692;28;20062;-71
2024/01/19 02:32:39;;;;;;;6.32;4.65;;;;;;;0.46;67.26;98402.19;5127174;28;20091;-71
2024/01/19 02:35:06;;;;;;;5.63;4.57;;;;;;;0.44;66.93;98399.63;5127614;28;20043;-71
2024/01/19 02:37:33;;;;;;;6.30;4.65;;;;;;;0.40;67.60;98412.78;5127582;28;20077;-71
2024/01/19 02:40:00;;;;;;;7.13;5.85;;;;;;;0.32;66.71;98420.81;5127452;28;20044;-71
2024/01/19 02:42:30;;;;;;;6.72;4.70;;;;;;;0.30;66.86;98427.84;5127493;28;20046;-71
2024/01/19 02:44:59;;;;;;;5.57;4.22;;;;;;;0.21;68.06;98392.47;5126813;28;20092;-71
2024/01/19 02:47:26;;;;;;;6.50;4.75;;;;;;;0.47;67.45;98438.63;5127315;28;20054;-71
2024/01/19 02:49:53;;;;;;;7.22;5.03;;;;;;;0.46;67.11;98441.28;5126765;28;20067;-71
2024/01/19 02:52:20;;;;;;;4.53;4.10;;;;;;;0.15;66.99;98387.44;5127538;28;20040;-71
2024/01/19 02:54:46;;;;;;;5.97;4.20;;;;;;;0.47;67.32;98450.81;5127182;28;20044;-71
2024/01/19 02:57:13;;;;;;;5.55;4.32;;;;;;;0.39;66.93;98445.81;5127366;28;20054;-71
2024/01/19 02:59:41;;;;;;;5.40;4.30;;;;;;;0.39;66.64;98438.00;5126861;28;20093;-71
2024/01/19 03:02:08;;;;;;;6.57;4.68;;;;;;;0.39;66.39;98451.03;5127109;28;20304;-71
2024/01/19 03:04:34;;;;;;;7.20;4.97;;;;;;;0.41;66.56;98446.63;5126734;28;20039;-71
2024/01/19 03:07:01;;;;;;;7.03;4.57;;;;;;;0.42;66.61;98445.72;5126678;28;20257;-71
2024/01/19 03:09:28;;;;;;;7.45;5.05;;;;;;;0.38;65.85;98466.72;5126651;28;20368;-71
2024/01/19 03:11:54;;;;;;;5.45;4.82;;;;;;;0.35;65.97;98480.69;5126906;28;20096;-71
2024/01/19 03:14:21;;;;;;;6.20;4.25;;;;;;;0.35;65.54;98492.88;5127025;28;20047;-70
2024/01/19 03:16:51;;;;;;;5.35;4.78;;;;;;;0.26;64.38;98489.63;5126861;28;20040;-70
2024/01/19 03:19:18;;;;;;;6.85;4.72;;;;;;;0.33;65.46;98492.06;5126813;28;20092;-71
2024/01/19 03:21:44;;;;;;;5.53;4.15;;;;;;;0.35;65.20;98501.53;5126675;28;20181;-70
2024/01/19 03:24:11;;;;;;;9.13;4.75;;;;;;;0.31;64.99;98507.72;5126728;28;20056;-71
2024/01/19 03:26:39;;;;;;;6.70;4.50;;;;;;;0.24;64.35;98516.63;5126722;28;20092;-70
2024/01/19 03:29:06;;;;;;;5.65;4.80;;;;;;;0.31;65.89;98530.34;5126535;28;20044;-71
2024/01/19 03:31:32;;;;;;;8.68;4.53;;;;;;;0.25;64.38;98524.41;5126038;28;20035;-70
2024/01/19 03:34:00;;;;;;;6.38;4.88;;;;;;;0.24;64.64;98521.81;5126309;28;20085;-70
2024/01/19 03:36:27;;;;;;;6.40;4.68;;;;;;;0.30;65.23;98524.28;5126618;28;20051;-71
2024/01/19 03:38:54;;;;;;;6.60;4.20;;;;;;;0.22;64.72;98519.25;5126770;28;20040;-71
2024/01/19 03:41:20;;;;;;;6.05;4.70;;;;;;;0.26;64.45;98544.34;5126183;28;20103;-70
2024/01/19 03:43:48;;;;;;;8.10;4.65;;;;;;;0.31;65.08;98512.09;5126509;28;20040;-70
2024/01/19 03:46:14;;;;;;;6.00;3.97;;;;;;;0.22;63.30;98532.28;5126136;28;20051;-71
2024/01/19 03:48:41;;;;;;;5.25;4.03;;;;;;;0.22;64.57;98531.44;5126711;28;20234;-71
2024/01/19 03:51:09;;;;;;;6.68;4.25;;;;;;;0.18;63.80;98528.06;5126365;28;20088;-71
2024/01/19 03:53:35;;;;;;;5.00;4.07;;;;;;;0.13;63.73;98542.09;5126033;28;20039;-71
2024/01/19 03:56:02;;;;;;;6.85;4.50;;;;;;;0.16;63.70;98547.25;5126161;28;20043;-71
2024/01/19 03:58:29;;;;;;;6.50;4.57;;;;;;;0.13;63.80;98545.56;5126115;28;20048;-70
2024/01/19 04:00:55;;;;;;;7.15;4.53;;;;;;;0.15;64.00;98545.53;5127674;28;20050;-71
2024/01/19 04:03:22;;;;;;;6.10;4.13;;;;;;;-0.04;63.17;98519.94;5130913;28;20040;-71
2024/01/19 04:05:49;;;;;;;7.88;4.90;;;;;;;0.17;63.67;98543.72;5130096;28;20059;-72
2024/01/19 04:08:16;;;;;;;6.97;4.20;;;;;;;0.14;63.60;98555.09;5130496;28;20043;-71
2024/01/19 04:10:43;;;;;;;4.50;3.50;;;;;;;0.16;64.00;98557.66;5130153;28;20088;-72
2024/01/19 04:13:10;;;;;;;6.18;4.10;;;;;;;0.16;63.15;98565.47;5130086;28;20048;-71
2024/01/19 04:15:36;;;;;;;6.45;4.65;;;;;;;0.18;63.49;98576.72;5130136;28;20203;-70
2024/01/19 04:18:04;;;;;;;7.65;3.97;;;;;;;0.17;63.08;98569.78;5130292;28;20043;-70
2024/01/19 04:20:30;;;;;;;6.43;4.20;;;;;;;0.07;62.68;98584.81;5130247;28;20184;-71
2024/01/19 04:22:57;;;;;;;5.82;3.90;;;;;;;0.10;62.67;98592.53;5130482;28;20040;-71
2024/01/19 04:25:25;;;;;;;7.13;3.75;;;;;;;0.13;62.79;98594.22;5130186;28;20044;-71
2024/01/19 04:27:52;;;;;;;5.18;3.72;;;;;;;0.20;63.45;98603.59;5128968;28;20304;-71
2024/01/19 04:30:18;;;;;;;5.78;4.47;;;;;;;0.14;62.79;98602.00;5130047;28;20051;-71
2024/01/19 04:32:45;;;;;;;6.35;3.92;;;;;;;0.07;62.82;98603.03;5129708;28;20043;-71
2024/01/19 04:35:12;;;;;;;5.05;3.75;;;;;;;0.10;62.92;98599.50;5129936;28;20051;-71
2024/01/19 04:37:38;;;;;;;7.35;4.32;;;;;;;0.03;62.31;98611.81;5129643;28;20288;-70
2024/01/19 04:40:05;;;;;;;6.00;4.57;;;;;;;0.06;62.26;98600.47;5129840;28;20066;-70
2024/01/19 04:42:33;;;;;;;6.50;3.83;;;;;;;0.16;63.12;98609.78;5130034;28;20105;-70
2024/01/19 04:45:00;;;;;;;6.13;4.03;;;;;;;0.07;62.19;98615.22;5129870;28;20063;-69
2024/01/19 04:47:27;;;;;;;4.53;3.42;;;;;;;0.05;62.71;98619.59;5129755;28;20043;-70
2024/01/19 04:49:53;;;;;;;5.28;3.85;;;;;;;0.06;62.97;98619.56;5129629;28;20048;-71
2024/01/19 04:52:20;;;;;;;7.75;4.47;;;;;;;0.12;62.59;98628.97;5129303;28;20039;-70
2024/01/19 04:54:46;;;;;;;4.50;3.50;;;;;;;0.14;62.99;98628.06;5129568;28;20062;-70
2024/01/19 04:57:13;;;;;;;5.63;3.80;;;;;;;0.09;62.08;98627.31;5128429;28;20048;-70
2024/01/19 04:59:41;;;;;;;5.93;3.72;;;;;;;0.04;62.59;98639.59;5129475;28;20043;-70
2024/01/19 05:02:08;;;;;;;6.63;4.40;;;;;;;0.10;63.04;98639.44;5129335;28;20051;-70
2024/01/19 05:04:34;;;;;;;7.18;3.60;;;;;;;0.14;62.75;98637.63;5129382;28;20311;-71
2024/01/19 05:07:01;;;;;;;5.32;3.67;;;;;;;0.12;62.65;98640.25;5128937;28;20055;-71
2024/01/19 05:09:28;;;;;;;6.10;4.90;;;;;;;-0.01;62.63;98620.63;5129295;28;20089;-71
2024/01/19 05:11:54;;;;;;;4.82;3.55;;;;;;;0.10;63.05;98635.97;5129064;28;20047;-70
2024/01/19 05:14:21;;;;;;;9.27;3.88;;;;;;;0.12;62.94;98645.47;5129471;28;20040;-70
2024/01/19 05:16:49;;;;;;;6.53;3.95;;;;;;;0.08;62.36;98637.78;5129127;28;20043;-71
2024/01/19 05:19:15;;;;;;;4.45;3.30;;;;;;;0.13;62.65;98641.97;5128841;28;20051;-70
2024/01/19 05:21:42;;;;;;;5.30;3.38;;;;;;;0.07;62.45;98647.34;5127831;28;20047;-71
2024/01/19 05:24:09;;;;;;;5.22;3.30;;;;;;;0.09;62.53;98649.91;5129057;28;20043;-70
2024/01/19 05:26:35;;;;;;;4.43;3.17;;;;;;;0.10;62.74;98639.44;5128955;28;20272;-71
2024/01/19 05:29:02;;;;;;;5.70;3.60;;;;;;;0.11;62.85;98642.91;5128654;28;20125;-70
2024/01/19 05:31:28;;;;;;;4.60;3.00;;;;;;;0.10;62.68;98643.81;5129199;28;20035;-70
2024/01/19 05:33:56;;;;;;;5.95;3.83;;;;;;;-0.06;62.41;98625.94;5128857;28;20063;-70
2024/01/19 05:36:23;;;;;;;4.90;3.03;;;;;;;-0.07;62.65;98628.56;5129149;28;20039;-70
2024/01/19 05:38:50;;;;;;;5.25;3.80;;;;;;;0.16;62.96;98672.31;5128427;28;20118;-70
2024/01/19 05:41:20;;;;;;;4.93;3.63;;;;;;;-0.29;62.22;98603.94;5128937;28;20047;-70
2024/01/19 05:43:47;;;;;;;4.47;3.10;;;;;;;0.16;62.88;98678.38;5128903;28;20284;-70
2024/01/19 05:46:14;;;;;;;4.88;3.60;;;;;;;0.17;62.99;98680.09;5128547;28;20251;-70
2024/01/19 05:48:41;;;;;;;3.47;3.17;;;;;;;-0.07;62.48;98644.22;5128832;28;20052;-70
2024/01/19 05:51:13;;;;;;;4.65;3.60;;;;;;;0.15;62.50;98681.03;5128485;27;20055;-70
2024/01/19 05:53:39;;;;;;;3.90;3.20;;;;;;;0.12;62.04;98686.31;5128685;28;20111;-70
2024/01/19 05:56:06;;;;;;;6.32;4.05;;;;;;;0.10;62.20;98688.94;5128461;28;20058;-70
2024/01/19 05:58:33;;;;;;;5.15;3.05;;;;;;;0.11;62.71;98690.66;5128415;28;20296;-70
2024/01/19 06:01:02;;;;;;;6.80;3.85;;;;;;;-0.11;62.51;98685.09;5128186;28;20291;-71
2024/01/19 06:03:29;;;;;;;5.43;3.65;;;;;;;0.07;62.36;98702.06;5127964;28;20039;-71
2024/01/19 06:05:56;;;;;;;4.45;3.22;;;;;;;0.08;62.40;98708.13;5127897;28;20093;-70
2024/01/19 06:08:24;;;;;;;5.70;3.13;;;;;;;-0.05;62.70;98678.88;5127205;28;20096;-70
2024/01/19 06:10:50;;;;;;;4.75;3.20;;;;;;;0.06;62.26;98713.38;5127885;28;20039;-70
2024/01/19 06:13:17;;;;;;;4.32;3.25;;;;;;;0.09;62.68;98713.28;5127790;28;20069;-70
2024/01/19 06:15:44;;;;;;;3.85;3.10;;;;;;;0.09;62.51;98722.84;5128037;28;20062;-70
2024/01/19 06:18:10;;;;;;;4.50;3.20;;;;;;;0.12;62.61;98720.19;5127943;28;20043;-70
2024/01/19 06:20:41;;;;;;;6.30;3.25;;;;;;;-1.33;62.01;98504.75;5127929;28;20035;-70
2024/01/19 06:23:07;;;;;;;5.80;3.58;;;;;;;0.07;62.31;98741.13;5126732;28;20059;-70
2024/01/19 06:25:36;;;;;;;5.28;3.35;;;;;;;0.11;62.78;98748.00;5126722;28;20085;-70
2024/01/19 06:28:03;;;;;;;5.07;3.30;;;;;;;0.02;62.32;98740.38;5127478;28;20218;-70
2024/01/19 06:30:30;;;;;;;4.20;2.90;;;;;;;0.01;62.47;98743.03;5127669;28;20081;-70
2024/01/19 06:32:56;;;;;;;4.07;3.13;;;;;;;0.06;62.75;98747.25;5127632;28;20040;-70
2024/01/19 06:35:23;;;;;;;5.63;3.40;;;;;;;0.06;62.53;98749.84;5127577;28;20054;-70
2024/01/19 06:37:50;;;;;;;3.97;3.30;;;;;;;0.07;62.18;98746.34;5127252;28;20324;-70
2024/01/19 06:40:17;;;;;;;4.22;3.42;;;;;;;0.05;61.91;98748.13;5127167;28;20040;-70
2024/01/19 06:42:46;;;;;;;4.93;3.40;;;;;;;0.02;61.81;98743.00;5127370;28;20104;-71
2024/01/19 06:45:15;;;;;;;6.70;3.72;;;;;;;-0.54;61.76;98684.34;5127012;28;20051;-71
2024/01/19 06:47:41;;;;;;;6.40;4.85;;;;;;;0.02;61.99;98758.63;5127033;28;20061;-71
2024/01/19 06:50:09;;;;;;;5.43;4.45;;;;;;;0.02;61.65;98753.41;5127247;28;20044;-71
2024/01/19 06:52:37;;;;;;;7.40;3.92;;;;;;;0.05;61.42;98761.16;5127037;28;20093;-71
2024/01/19 06:55:04;;;;;;;4.68;3.20;;;;;;;0.03;62.03;98767.28;5127480;28;20039;-71
2024/01/19 06:57:30;;;;;;;5.75;3.58;;;;;;;-0.15;61.93;98730.34;5127120;28;20097;-71
2024/01/19 06:59:58;;;;;;;5.65;3.55;;;;;;;0.09;62.20;98777.56;5127104;28;20180;-71
2024/01/19 07:02:25;;;;;;;4.60;3.40;;;;;;;0.06;61.79;98793.28;5127004;28;20039;-70
2024/01/19 07:04:52;;;;;;;5.03;3.40;;;;;;;0.05;61.51;98810.66;5126757;28;20181;-71
2024/01/19 07:07:18;;;;;;;5.00;3.55;;;;;;;0.11;62.05;98809.66;5126502;28;20060;-71
2024/01/19 07:09:45;;;;;;;5.35;3.80;;;;;;;0.00;61.69;98833.34;5127155;28;20246;-71
2024/01/19 07:12:12;;;;;;;6.35;3.83;;;;;;;0.06;61.68;98837.56;5126757;28;20050;-70
2024/01/19 07:14:39;;;;;;;5.53;3.80;;;;;;;-0.19;61.80;98808.56;5126789;28;20047;-71
2024/01/19 07:17:07;;;;;;;7.53;4.35;;;;;;;0.10;61.99;98850.50;5126701;28;20043;-70
2024/01/19 07:19:35;;;;;;;4.90;3.30;;;;;;;-0.12;61.89;98828.38;5126700;28;20048;-70
2024/01/19 07:22:02;;;;;;;4.60;3.50;;;;;;;0.09;61.91;98872.22;5126613;28;20085;-71
2024/01/19 07:24:32;;;;;;;5.55;4.05;;;;;;;0.04;61.56;98865.41;5126549;28;20043;-71
2024/01/19 07:26:59;;;;;;;7.72;4.53;;;;;;;0.08;61.79;98872.28;5126943;28;20093;-71
2024/01/19 07:29:25;;;;;;;5.53;4.15;;;;;;;0.10;61.93;98875.69;5125484;28;20040;-71
2024/01/19 07:31:52;;;;;;;5.97;4.60;;;;;;;0.14;61.98;98869.53;5125867;28;20081;-71
2024/01/19 07:34:20;;;;;;;5.65;5.13;;;;;;;-0.17;61.87;98853.69;5126721;28;20092;-71
2024/01/19 07:36:47;;;;;;;6.13;5.07;;;;;;;0.11;61.53;98874.81;5126321;28;20040;-71
2024/01/19 07:39:14;;;;;;;6.32;3.95;;;;;;;0.05;61.46;98869.72;5126864;28;20043;-71
2024/01/19 07:41:40;;;;;;;7.35;4.43;;;;;;;0.08;61.59;98870.53;5126152;28;20097;-71
2024/01/19 07:44:07;;;;;;;6.90;4.78;;;;;;;0.03;61.40;98872.38;5126740;28;20040;-71
2024/01/19 07:46:34;;;;;;;6.93;4.57;;;;;;;0.06;61.62;98877.50;5126756;28;20089;-71
2024/01/19 07:49:01;;;;;;;6.32;4.43;;;;;;;0.12;62.04;98877.38;5125230;28;20221;-71
2024/01/19 07:51:29;;;;;;;6.53;4.40;;;;;;;0.15;61.86;98889.50;5126027;28;20186;-71
2024/01/19 07:53:56;;;;;;;6.50;5.10;;;;;;;0.10;61.83;98888.72;5125917;28;20047;-71
2024/01/19 07:56:22;;;;;;;7.15;5.07;;;;;;;0.08;61.55;98880.94;5126089;28;20096;-71
2024/01/19 07:58:49;;;;;;;6.28;4.45;;;;;;;0.11;61.64;98890.44;5126756;28;20234;-71
2024/01/19 08:01:16;;;;;;;6.82;4.18;;;;;;;-0.60;60.95;98765.13;5126259;28;20151;-71
2024/01/19 08:03:44;;;;;;;6.80;4.97;;;;;;;0.12;61.66;98873.91;5126680;28;20192;-71
2024/01/19 08:06:11;;;;;;;8.48;4.70;;;;;;;0.05;60.84;98883.63;5125927;28;20224;-71
2024/01/19 08:08:39;;;;;;;7.90;4.97;;;;;;;0.09;61.18;98887.88;5125343;28;20047;-71
2024/01/19 08:11:05;;;;;;;10.32;5.25;;;;;;;0.08;60.93;98893.97;5125804;28;20047;-71
2024/01/19 08:13:32;;;;;;;6.03;4.50;;;;;;;-0.27;61.34;98818.28;5126082;28;20195;-71
2024/01/19 08:15:59;;;;;;;6.32;5.10;;;;;;;0.06;60.66;98910.53;5125347;28;20043;-71
2024/01/19 08:18:25;;;;;;;8.52;4.70;;;;;;;0.09;60.58;98910.47;5125989;28;20047;-71
2024/01/19 08:20:52;;;;;;;8.90;5.68;;;;;;;0.14;61.08;98914.69;5126051;28;20177;-71
2024/01/19 08:23:19;;;;;;;8.02;5.32;;;;;;;0.15;61.00;98900.78;5125929;28;20280;-71
2024/01/19 08:25:47;;;;;;;7.93;4.90;;;;;;;0.13;60.56;98910.38;5125727;28;20089;-71
2024/01/19 08:28:13;;;;;;;8.13;5.55;;;;;;;0.16;61.07;98922.47;5125693;28;20088;-71
2024/01/19 08:30:40;;;;;;;7.82;6.30;;;;;;;0.17;60.64;98913.78;5125333;28;20040;-71
2024/01/19 08:33:07;;;;;;;7.22;5.18;;;;;;;-0.59;60.19;98798.94;5125943;28;20076;-72
2024/01/19 08:35:34;;;;;;;7.15;5.30;;;;;;;0.11;60.49;98913.91;5125934;28;20049;-71
2024/01/19 08:38:00;;;;;;;9.35;6.88;;;;;;;0.15;60.75;98921.63;5125855;28;20108;-72
2024/01/19 08:40:27;;;;;;;7.25;5.65;;;;;;;0.17;60.25;98945.03;5125891;28;20097;-72
2024/01/19 08:42:55;;;;;;;10.68;4.80;;;;;;;0.13;60.10;98951.22;5125578;28;20039;-71
2024/01/19 08:45:22;;;;;;;5.53;4.90;;;;;;;0.13;60.15;98938.19;5125596;28;20039;-72
2024/01/19 08:47:50;;;;;;;6.80;5.55;;;;;;;0.12;60.41;98944.28;5128572;28;20303;-71
2024/01/19 08:50:16;;;;;;;9.80;5.90;;;;;;;0.10;60.04;98949.53;5128853;28;20067;-71
2024/01/19 08:52:43;;;;;;;9.38;5.53;;;;;;;0.07;59.43;98959.16;5129345;28;20043;-71
2024/01/19 08:55:10;;;;;;;9.95;6.22;;;;;;;-0.15;59.61;98928.28;5129336;28;20404;-71
2024/01/19 08:57:36;;;;;;;10.68;5.53;;;;;;;0.10;59.96;98972.13;5129523;27;20093;-71
2024/01/19 09:00:07;;;;;;;7.80;5.32;;;;;;;0.10;59.82;98980.78;5129517;28;20043;-71
2024/01/19 09:02:34;;;;;;;8.07;5.07;;;;;;;0.12;59.45;98986.81;5129350;28;20043;-71
2024/01/19 09:05:01;;;;;;;8.13;6.22;;;;;;;0.14;59.39;98982.44;5129206;28;20238;-72
2024/01/19 09:07:27;;;;;;;8.48;5.95;;;;;;;0.12;59.51;98981.63;5129284;28;20096;-71
2024/01/19 09:09:54;;;;;;;7.10;5.70;;;;;;;0.16;59.58;98993.69;5129134;28;20097;-71
2024/01/19 09:12:21;;;;;;;6.93;5.53;;;;;;;0.21;59.84;98997.06;5129118;28;20040;-71
2024/01/19 09:14:47;;;;;;;9.43;6.18;;;;;;;0.20;59.51;99024.03;5129148;28;20100;-71
2024/01/19 09:17:15;;;;;;;8.57;5.97;;;;;;;0.15;59.35;99014.56;5128789;28;20104;-71
2024/01/19 09:19:42;;;;;;;6.53;5.18;;;;;;;0.14;59.12;99008.50;5128214;28;20200;-71
2024/01/19 09:22:09;;;;;;;6.90;5.93;;;;;;;0.21;59.20;99015.31;5128989;28;20292;-71
2024/01/19 09:24:35;;;;;;;8.23;6.00;;;;;;;0.18;59.34;99022.34;5129263;28;20304;-71
2024/01/19 09:27:02;;;;;;;8.15;6.13;;;;;;;0.23;59.69;99036.16;5128719;28;20039;-71
2024/01/19 09:29:28;;;;;;;7.80;5.38;;;;;;;0.30;59.90;99029.94;5128856;28;20043;-71
2024/01/19 09:31:55;;;;;;;8.65;6.10;;;;;;;0.33;59.46;99036.81;5128753;28;20117;-71
2024/01/19 09:34:23;;;;;;;7.57;5.80;;;;;;;0.26;58.72;99039.56;5128753;28;20035;-72
2024/01/19 09:36:50;;;;;;;7.00;5.50;;;;;;;0.24;58.66;99058.72;5128737;28;20044;-71
2024/01/19 09:39:17;;;;;;;7.18;5.55;;;;;;;0.30;58.91;99069.03;5128796;28;20109;-71
2024/01/19 09:41:48;;;;;;;10.40;6.68;;;;;;;-0.49;58.54;98961.03;5128689;28;20043;-71
2024/01/19 09:44:18;;;;;;;8.75;6.18;;;;;;;0.35;59.10;99085.44;5128511;28;20044;-71
2024/01/19 09:47:14;;;;;;;7.63;5.97;;;;;;;0.30;57.95;99087.28;5128512;28;20130;-71
2024/01/19 09:49:56;;;;;;;9.05;5.85;;;;;;;0.28;57.99;99096.88;5127866;28;20300;-71
2024/01/19 09:52:31;;;;;;;9.05;6.00;;;;;;;0.26;57.58;99107.31;5128453;28;20238;-71
2024/01/19 09:54:57;;;;;;;7.47;5.47;;;;;;;0.31;57.78;99099.41;5127968;28;20296;-71
2024/01/19 09:57:24;;;;;;;7.32;5.80;;;;;;;0.32;57.55;99101.13;5127965;28;20051;-71
2024/01/19 09:59:51;;;;;;;9.02;6.13;;;;;;;0.32;57.91;99095.94;5127093;28;20044;-71
2024/01/19 10:02:18;;;;;;;10.32;6.07;;;;;;;0.39;57.56;99105.34;5127863;28;20043;-72
2024/01/19 10:04:46;;;;;;;8.52;5.85;;;;;;;0.08;57.32;99075.50;5128504;28;20111;-71
2024/01/19 10:07:13;;;;;;;7.28;6.07;;;;;;;0.08;57.35;99071.16;5127781;28;20051;-71
2024/01/19 10:09:40;;;;;;;10.82;5.63;;;;;;;0.28;56.63;99129.00;5128152;28;20044;-71
2024/01/19 10:12:07;;;;;;;8.55;5.57;;;;;;;0.32;56.78;99145.47;5128075;28;20057;-71
2024/01/19 10:14:34;;;;;;;7.75;5.57;;;;;;;0.31;56.31;99151.56;5128048;28;20035;-70
2024/01/19 10:17:04;;;;;;;9.50;6.32;;;;;;;0.33;56.92;99149.78;5127707;28;20085;-71
2024/01/19 10:19:32;;;;;;;8.38;6.15;;;;;;;0.26;56.20;99164.66;5127717;28;20051;-71
2024/01/19 10:22:28;;;;;;;8.60;5.82;;;;;;;0.33;56.01;99167.16;5127890;28;20043;-71
2024/01/19 10:25:05;;;;;;;13.10;6.05;;;;;;;0.32;56.13;99166.31;5127485;28;20048;-72
2024/01/19 10:27:45;;;;;;;6.93;5.22;;;;;;;0.40;56.34;99163.56;5127599;28;20051;-71
2024/01/19 10:30:14;;;;;;;7.82;6.35;;;;;;;0.42;56.31;99174.84;5127797;28;20051;-71
2024/01/19 10:32:42;;;;;;;9.07;6.07;;;;;;;0.31;55.33;99195.88;5127371;28;20040;-71
2024/01/19 10:35:11;;;;;;;7.45;5.20;;;;;;;0.39;56.22;99198.34;5127619;28;20284;-71
2024/01/19 10:37:39;;;;;;;10.00;5.65;;;;;;;0.26;56.25;99182.06;5127481;28;20059;-71
2024/01/19 10:40:21;;;;;;;8.80;6.80;;;;;;;0.43;55.63;99176.56;5127527;28;20089;-71
2024/01/19 10:42:49;;;;;;;9.93;5.97;;;;;;;0.45;55.79;99183.47;5127615;28;20059;-71
2024/01/19 10:45:20;;;;;;;8.07;5.97;;;;;;;0.53;56.38;99180.72;5127173;28;20040;-71
2024/01/19 10:47:48;;;;;;;9.25;5.80;;;;;;;0.39;56.16;99177.50;5126938;28;20058;-71
2024/01/19 10:50:16;;;;;;;11.85;6.43;;;;;;;0.60;56.55;99203.19;5127609;28;20096;-71
2024/01/19 10:52:44;;;;;;;9.05;6.30;;;;;;;0.55;55.58;99205.88;5127288;28;20080;-71
2024/01/19 10:55:18;;;;;;;8.13;5.72;;;;;;;0.56;56.33;99217.19;5127557;28;20043;-71
2024/01/19 10:57:47;;;;;;;6.82;5.97;;;;;;;0.56;56.36;99198.94;5127823;28;20043;-73
2024/01/19 11:00:25;;;;;;;8.30;5.65;;;;;;;0.59;55.25;99215.38;5126312;28;20147;-72
2024/01/19 11:02:53;;;;;;;9.80;6.13;;;;;;;0.56;54.53;99222.41;5126599;28;20044;-71
2024/01/19 11:05:20;;;;;;;9.38;6.45;;;;;;;0.54;54.63;99213.75;5127044;28;20051;-71
2024/01/19 11:07:50;;;;;;;9.07;6.25;;;;;;;0.62;54.56;99209.25;5125794;28;20242;-72
2024/01/19 11:10:16;;;;;;;11.82;6.90;;;;;;;0.72;54.80;99210.81;5126784;28;20099;-72
2024/01/19 11:12:48;;;;;;;7.88;5.85;;;;;;;0.71;54.89;99206.47;5126918;28;20246;-71
2024/01/19 11:15:26;;;;;;;5.95;5.35;;;;;;;0.69;54.12;99208.25;5126584;28;20196;-72
2024/01/19 11:17:55;;;;;;;7.53;5.47;;;;;;;0.73;54.38;99209.91;5126456;28;20051;-71
2024/01/19 11:20:23;;;;;;;9.18;5.55;;;;;;;0.79;54.66;99207.19;5126784;28;20051;-72
2024/01/19 11:22:52;;;;;;;8.68;6.22;;;;;;;0.76;53.89;99209.00;5126540;28;20043;-71
2024/01/19 11:25:25;;;;;;;10.80;5.82;;;;;;;0.79;54.14;99228.06;5126433;28;20067;-71
2024/01/19 11:28:06;;;;;;;8.77;6.20;;;;;;;0.77;54.54;99227.25;5126976;28;20174;-71
2024/01/19 11:30:48;;;;;;;7.18;4.43;;;;;;;0.79;54.33;99219.38;5126296;28;20341;-71
2024/01/19 11:33:18;;;;;;;6.65;5.47;;;;;;;0.77;54.19;99221.16;5126780;28;20349;-71
2024/01/19 11:35:48;;;;;;;8.98;5.60;;;;;;;0.77;53.40;99211.59;5126504;28;20055;-71
2024/01/19 11:38:45;;;;;;;8.27;6.03;;;;;;;0.76;53.61;99214.22;5126469;28;20051;-71
2024/01/19 11:41:44;;;;;;;7.57;5.07;;;;;;;0.79;53.71;99217.63;5126345;28;20043;-71